sensor_id;sensor_type;location;lat;lon;timestamp;P1;durP1;ratioP1;P2;durP2;ratioP2
59659;SDS011;45534;52.690;6.268;2023-11-21T00:01:18;32.10;;;16.52;;
59659;SDS011;45534;52.690;6.268;2023-11-21T00:03:44;34.17;;;14.77;;
59659;SDS011;45534;52.690;6.268;2023-11-21T00:06:10;35.40;;;15.77;;
59659;SDS011;45534;52.690;6.268;2023-11-21T00:08:36;26.20;;;13.07;;
59659;SDS011;45534;52.690;6.268;2023-11-21T00:11:02;35.22;;;16.17;;
59659;SDS011;45534;52.690;6.268;2023-11-21T00:13:30;25.65;;;11.93;;
59659;SDS011;45534;52.690;6.268;2023-11-21T00:15:56;27.33;;;12.23;;
59659;SDS011;45534;52.690;6.268;2023-11-21T00:18:22;23.83;;;13.45;;
59659;SDS011;45534;52.690;6.268;2023-11-21T00:20:48;21.73;;;11.73;;
59659;SDS011;45534;52.690;6.268;2023-11-21T00:23:13;39.33;;;15.30;;
59659;SDS011;45534;52.690;6.268;2023-11-21T00:25:39;24.80;;;12.15;;
59659;SDS011;45534;52.690;6.268;2023-11-21T00:28:05;21.38;;;12.38;;
59659;SDS011;45534;52.690;6.268;2023-11-21T00:30:31;37.85;;;13.23;;
59659;SDS011;45534;52.690;6.268;2023-11-21T00:32:57;26.05;;;12.45;;
59659;SDS011;45534;52.690;6.268;2023-11-21T00:35:22;27.35;;;14.40;;
59659;SDS011;45534;52.690;6.268;2023-11-21T00:37:48;27.73;;;14.90;;
59659;SDS011;45534;52.690;6.268;2023-11-21T00:40:14;30.05;;;12.80;;
59659;SDS011;45534;52.690;6.268;2023-11-21T00:42:41;33.47;;;15.02;;
59659;SDS011;45534;52.690;6.268;2023-11-21T00:45:07;26.27;;;14.55;;
59659;SDS011;45534;52.690;6.268;2023-11-21T00:47:33;27.15;;;14.55;;
59659;SDS011;45534;52.690;6.268;2023-11-21T00:49:59;31.17;;;16.83;;
59659;SDS011;45534;52.690;6.268;2023-11-21T00:52:24;41.90;;;13.20;;
59659;SDS011;45534;52.690;6.268;2023-11-21T00:54:50;30.20;;;12.82;;
59659;SDS011;45534;52.690;6.268;2023-11-21T00:57:16;25.38;;;14.15;;
59659;SDS011;45534;52.690;6.268;2023-11-21T00:59:41;27.83;;;16.05;;
59659;SDS011;45534;52.690;6.268;2023-11-21T01:02:07;25.75;;;13.45;;
59659;SDS011;45534;52.690;6.268;2023-11-21T01:04:35;28.95;;;12.15;;
59659;SDS011;45534;52.690;6.268;2023-11-21T01:07:01;26.90;;;16.88;;
59659;SDS011;45534;52.690;6.268;2023-11-21T01:09:26;27.58;;;13.32;;
59659;SDS011;45534;52.690;6.268;2023-11-21T01:11:53;31.73;;;15.88;;
59659;SDS011;45534;52.690;6.268;2023-11-21T01:14:19;18.83;;;13.40;;
59659;SDS011;45534;52.690;6.268;2023-11-21T01:16:44;27.20;;;13.55;;
59659;SDS011;45534;52.690;6.268;2023-11-21T01:19:10;32.72;;;15.07;;
59659;SDS011;45534;52.690;6.268;2023-11-21T01:21:36;24.33;;;13.13;;
59659;SDS011;45534;52.690;6.268;2023-11-21T01:24:02;22.38;;;11.15;;
59659;SDS011;45534;52.690;6.268;2023-11-21T01:26:28;22.67;;;16.08;;
59659;SDS011;45534;52.690;6.268;2023-11-21T01:28:54;30.95;;;16.55;;
59659;SDS011;45534;52.690;6.268;2023-11-21T01:31:20;26.52;;;13.35;;
59659;SDS011;45534;52.690;6.268;2023-11-21T01:33:46;31.13;;;12.45;;
59659;SDS011;45534;52.690;6.268;2023-11-21T01:36:11;24.33;;;11.70;;
59659;SDS011;45534;52.690;6.268;2023-11-21T01:38:37;30.17;;;12.55;;
59659;SDS011;45534;52.690;6.268;2023-11-21T01:41:03;22.52;;;13.20;;
59659;SDS011;45534;52.690;6.268;2023-11-21T01:43:29;26.40;;;12.75;;
59659;SDS011;45534;52.690;6.268;2023-11-21T01:45:57;23.85;;;13.15;;
59659;SDS011;45534;52.690;6.268;2023-11-21T01:48:23;28.33;;;14.43;;
59659;SDS011;45534;52.690;6.268;2023-11-21T01:50:50;26.10;;;13.13;;
59659;SDS011;45534;52.690;6.268;2023-11-21T01:53:17;29.92;;;14.45;;
59659;SDS011;45534;52.690;6.268;2023-11-21T01:55:43;31.55;;;15.70;;
59659;SDS011;45534;52.690;6.268;2023-11-21T01:58:11;31.67;;;12.27;;
59659;SDS011;45534;52.690;6.268;2023-11-21T02:00:37;26.10;;;14.57;;
59659;SDS011;45534;52.690;6.268;2023-11-21T02:03:03;24.65;;;12.88;;
59659;SDS011;45534;52.690;6.268;2023-11-21T02:05:29;21.08;;;11.30;;
59659;SDS011;45534;52.690;6.268;2023-11-21T02:07:55;25.30;;;14.13;;
59659;SDS011;45534;52.690;6.268;2023-11-21T02:10:21;25.92;;;14.07;;
59659;SDS011;45534;52.690;6.268;2023-11-21T02:12:48;28.98;;;15.57;;
59659;SDS011;45534;52.690;6.268;2023-11-21T02:15:17;21.50;;;11.43;;
59659;SDS011;45534;52.690;6.268;2023-11-21T02:17:47;23.83;;;15.20;;
59659;SDS011;45534;52.690;6.268;2023-11-21T02:20:16;20.95;;;12.80;;
59659;SDS011;45534;52.690;6.268;2023-11-21T02:22:43;27.73;;;15.20;;
59659;SDS011;45534;52.690;6.268;2023-11-21T02:25:32;29.33;;;11.75;;
59659;SDS011;45534;52.690;6.268;2023-11-21T02:28:02;24.00;;;13.98;;
59659;SDS011;45534;52.690;6.268;2023-11-21T02:30:28;32.30;;;15.07;;
59659;SDS011;45534;52.690;6.268;2023-11-21T02:32:56;25.30;;;11.82;;
59659;SDS011;45534;52.690;6.268;2023-11-21T02:35:22;26.08;;;14.63;;
59659;SDS011;45534;52.690;6.268;2023-11-21T02:37:48;28.27;;;17.73;;
59659;SDS011;45534;52.690;6.268;2023-11-21T02:40:15;21.55;;;15.30;;
59659;SDS011;45534;52.690;6.268;2023-11-21T02:42:45;37.00;;;17.45;;
59659;SDS011;45534;52.690;6.268;2023-11-21T02:45:16;26.50;;;13.38;;
59659;SDS011;45534;52.690;6.268;2023-11-21T02:47:43;26.02;;;14.15;;
59659;SDS011;45534;52.690;6.268;2023-11-21T02:50:09;28.70;;;13.00;;
59659;SDS011;45534;52.690;6.268;2023-11-21T02:52:35;24.65;;;12.52;;
59659;SDS011;45534;52.690;6.268;2023-11-21T02:55:01;25.33;;;15.43;;
59659;SDS011;45534;52.690;6.268;2023-11-21T02:57:27;28.42;;;15.13;;
59659;SDS011;45534;52.690;6.268;2023-11-21T02:59:53;27.70;;;15.93;;
59659;SDS011;45534;52.690;6.268;2023-11-21T03:02:19;35.13;;;18.70;;
59659;SDS011;45534;52.690;6.268;2023-11-21T03:04:45;38.58;;;16.65;;
59659;SDS011;45534;52.690;6.268;2023-11-21T03:07:13;23.25;;;13.77;;
59659;SDS011;45534;52.690;6.268;2023-11-21T03:09:38;33.70;;;16.75;;
59659;SDS011;45534;52.690;6.268;2023-11-21T03:12:05;26.55;;;18.00;;
59659;SDS011;45534;52.690;6.268;2023-11-21T03:14:30;19.13;;;13.45;;
59659;SDS011;45534;52.690;6.268;2023-11-21T03:16:56;31.02;;;14.93;;
59659;SDS011;45534;52.690;6.268;2023-11-21T03:19:22;40.08;;;15.85;;
59659;SDS011;45534;52.690;6.268;2023-11-21T03:21:48;26.02;;;13.85;;
59659;SDS011;45534;52.690;6.268;2023-11-21T03:24:14;30.85;;;15.95;;
59659;SDS011;45534;52.690;6.268;2023-11-21T03:26:44;37.75;;;15.85;;
59659;SDS011;45534;52.690;6.268;2023-11-21T03:29:13;30.55;;;15.55;;
59659;SDS011;45534;52.690;6.268;2023-11-21T03:31:40;35.65;;;18.83;;
59659;SDS011;45534;52.690;6.268;2023-11-21T03:34:06;30.83;;;17.33;;
59659;SDS011;45534;52.690;6.268;2023-11-21T03:36:35;26.92;;;17.25;;
59659;SDS011;45534;52.690;6.268;2023-11-21T03:39:01;23.17;;;13.65;;
59659;SDS011;45534;52.690;6.268;2023-11-21T03:41:27;34.50;;;18.00;;
59659;SDS011;45534;52.690;6.268;2023-11-21T03:43:53;27.67;;;14.65;;
59659;SDS011;45534;52.690;6.268;2023-11-21T03:46:18;37.00;;;18.45;;
59659;SDS011;45534;52.690;6.268;2023-11-21T03:48:44;37.97;;;18.38;;
59659;SDS011;45534;52.690;6.268;2023-11-21T03:51:10;37.25;;;17.00;;
59659;SDS011;45534;52.690;6.268;2023-11-21T03:53:35;35.72;;;19.55;;
59659;SDS011;45534;52.690;6.268;2023-11-21T03:56:02;27.00;;;13.15;;
59659;SDS011;45534;52.690;6.268;2023-11-21T03:58:28;29.77;;;17.33;;
59659;SDS011;45534;52.690;6.268;2023-11-21T04:00:54;34.47;;;14.77;;
59659;SDS011;45534;52.690;6.268;2023-11-21T04:03:20;26.90;;;13.02;;
59659;SDS011;45534;52.690;6.268;2023-11-21T04:05:45;24.85;;;13.77;;
59659;SDS011;45534;52.690;6.268;2023-11-21T04:08:12;29.42;;;14.57;;
59659;SDS011;45534;52.690;6.268;2023-11-21T04:10:38;35.97;;;16.48;;
59659;SDS011;45534;52.690;6.268;2023-11-21T04:13:04;33.70;;;15.30;;
59659;SDS011;45534;52.690;6.268;2023-11-21T04:15:31;26.20;;;13.90;;
59659;SDS011;45534;52.690;6.268;2023-11-21T04:17:57;24.90;;;15.57;;
59659;SDS011;45534;52.690;6.268;2023-11-21T04:20:23;35.67;;;12.75;;
59659;SDS011;45534;52.690;6.268;2023-11-21T04:22:49;32.85;;;18.50;;
59659;SDS011;45534;52.690;6.268;2023-11-21T04:25:15;28.73;;;16.63;;
59659;SDS011;45534;52.690;6.268;2023-11-21T04:27:42;26.98;;;17.23;;
59659;SDS011;45534;52.690;6.268;2023-11-21T04:30:12;27.30;;;17.10;;
59659;SDS011;45534;52.690;6.268;2023-11-21T04:32:39;30.17;;;14.75;;
59659;SDS011;45534;52.690;6.268;2023-11-21T04:35:05;27.52;;;14.88;;
59659;SDS011;45534;52.690;6.268;2023-11-21T04:37:31;30.80;;;16.45;;
59659;SDS011;45534;52.690;6.268;2023-11-21T04:39:57;39.40;;;16.10;;
59659;SDS011;45534;52.690;6.268;2023-11-21T04:42:22;31.40;;;15.48;;
59659;SDS011;45534;52.690;6.268;2023-11-21T04:44:48;34.83;;;16.48;;
59659;SDS011;45534;52.690;6.268;2023-11-21T04:47:14;27.63;;;17.45;;
59659;SDS011;45534;52.690;6.268;2023-11-21T04:49:43;39.33;;;15.32;;
59659;SDS011;45534;52.690;6.268;2023-11-21T04:52:09;34.72;;;17.98;;
59659;SDS011;45534;52.690;6.268;2023-11-21T04:54:35;24.80;;;14.02;;
59659;SDS011;45534;52.690;6.268;2023-11-21T04:57:01;65.25;;;19.85;;
59659;SDS011;45534;52.690;6.268;2023-11-21T04:59:26;41.33;;;15.27;;
59659;SDS011;45534;52.690;6.268;2023-11-21T05:01:53;45.63;;;17.42;;
59659;SDS011;45534;52.690;6.268;2023-11-21T05:04:19;28.05;;;14.48;;
59659;SDS011;45534;52.690;6.268;2023-11-21T05:06:46;27.55;;;16.67;;
59659;SDS011;45534;52.690;6.268;2023-11-21T05:09:13;38.40;;;18.17;;
59659;SDS011;45534;52.690;6.268;2023-11-21T05:11:40;31.45;;;12.80;;
59659;SDS011;45534;52.690;6.268;2023-11-21T05:14:06;32.88;;;14.35;;
59659;SDS011;45534;52.690;6.268;2023-11-21T05:16:32;32.60;;;13.27;;
59659;SDS011;45534;52.690;6.268;2023-11-21T05:18:58;39.20;;;14.32;;
59659;SDS011;45534;52.690;6.268;2023-11-21T05:21:26;33.10;;;17.67;;
59659;SDS011;45534;52.690;6.268;2023-11-21T05:23:52;34.53;;;13.68;;
59659;SDS011;45534;52.690;6.268;2023-11-21T05:26:18;36.08;;;15.43;;
59659;SDS011;45534;52.690;6.268;2023-11-21T05:28:43;41.80;;;19.50;;
59659;SDS011;45534;52.690;6.268;2023-11-21T05:31:09;34.03;;;16.35;;
59659;SDS011;45534;52.690;6.268;2023-11-21T05:33:36;29.05;;;18.65;;
59659;SDS011;45534;52.690;6.268;2023-11-21T05:36:02;37.78;;;15.48;;
59659;SDS011;45534;52.690;6.268;2023-11-21T05:38:28;31.17;;;15.85;;
59659;SDS011;45534;52.690;6.268;2023-11-21T05:40:54;56.13;;;16.20;;
59659;SDS011;45534;52.690;6.268;2023-11-21T05:43:20;36.45;;;15.73;;
59659;SDS011;45534;52.690;6.268;2023-11-21T05:45:45;53.28;;;14.82;;
59659;SDS011;45534;52.690;6.268;2023-11-21T05:48:11;29.45;;;15.20;;
59659;SDS011;45534;52.690;6.268;2023-11-21T05:50:37;27.58;;;15.80;;
59659;SDS011;45534;52.690;6.268;2023-11-21T05:53:03;31.02;;;16.15;;
59659;SDS011;45534;52.690;6.268;2023-11-21T05:55:29;34.58;;;17.33;;
59659;SDS011;45534;52.690;6.268;2023-11-21T05:57:54;34.13;;;15.00;;
59659;SDS011;45534;52.690;6.268;2023-11-21T06:00:20;30.67;;;19.00;;
59659;SDS011;45534;52.690;6.268;2023-11-21T06:02:52;33.42;;;16.90;;
59659;SDS011;45534;52.690;6.268;2023-11-21T06:05:22;31.75;;;16.38;;
59659;SDS011;45534;52.690;6.268;2023-11-21T06:07:49;30.67;;;13.73;;
59659;SDS011;45534;52.690;6.268;2023-11-21T06:10:15;21.20;;;13.85;;
59659;SDS011;45534;52.690;6.268;2023-11-21T06:12:42;63.42;;;17.52;;
59659;SDS011;45534;52.690;6.268;2023-11-21T06:15:09;22.27;;;12.77;;
59659;SDS011;45534;52.690;6.268;2023-11-21T06:17:38;27.25;;;14.13;;
59659;SDS011;45534;52.690;6.268;2023-11-21T06:20:06;28.98;;;13.43;;
59659;SDS011;45534;52.690;6.268;2023-11-21T06:22:39;30.45;;;13.88;;
59659;SDS011;45534;52.690;6.268;2023-11-21T06:25:06;23.02;;;14.73;;
59659;SDS011;45534;52.690;6.268;2023-11-21T06:27:40;28.08;;;14.18;;
59659;SDS011;45534;52.690;6.268;2023-11-21T06:30:07;30.00;;;13.73;;
59659;SDS011;45534;52.690;6.268;2023-11-21T06:32:34;24.70;;;12.95;;
59659;SDS011;45534;52.690;6.268;2023-11-21T06:35:01;18.33;;;10.52;;
59659;SDS011;45534;52.690;6.268;2023-11-21T06:37:29;17.08;;;11.25;;
59659;SDS011;45534;52.690;6.268;2023-11-21T06:39:55;20.60;;;10.50;;
59659;SDS011;45534;52.690;6.268;2023-11-21T06:42:23;17.20;;;10.35;;
59659;SDS011;45534;52.690;6.268;2023-11-21T06:44:49;24.50;;;10.10;;
59659;SDS011;45534;52.690;6.268;2023-11-21T06:47:17;16.95;;;10.90;;
59659;SDS011;45534;52.690;6.268;2023-11-21T06:49:45;18.83;;;11.23;;
59659;SDS011;45534;52.690;6.268;2023-11-21T06:52:13;17.10;;;12.25;;
59659;SDS011;45534;52.690;6.268;2023-11-21T06:54:39;28.90;;;16.85;;
59659;SDS011;45534;52.690;6.268;2023-11-21T06:57:05;16.42;;;10.77;;
59659;SDS011;45534;52.690;6.268;2023-11-21T06:59:30;19.10;;;9.00;;
59659;SDS011;45534;52.690;6.268;2023-11-21T07:01:56;30.58;;;13.95;;
59659;SDS011;45534;52.690;6.268;2023-11-21T07:04:22;29.83;;;11.13;;
59659;SDS011;45534;52.690;6.268;2023-11-21T07:06:49;17.08;;;10.05;;
59659;SDS011;45534;52.690;6.268;2023-11-21T07:09:15;22.33;;;10.77;;
59659;SDS011;45534;52.690;6.268;2023-11-21T07:11:40;21.92;;;11.05;;
59659;SDS011;45534;52.690;6.268;2023-11-21T07:14:06;23.40;;;12.32;;
59659;SDS011;45534;52.690;6.268;2023-11-21T07:16:36;44.03;;;9.60;;
59659;SDS011;45534;52.690;6.268;2023-11-21T07:19:05;18.27;;;11.45;;
59659;SDS011;45534;52.690;6.268;2023-11-21T07:21:32;14.55;;;9.27;;
59659;SDS011;45534;52.690;6.268;2023-11-21T07:23:59;22.33;;;12.18;;
59659;SDS011;45534;52.690;6.268;2023-11-21T07:26:26;24.88;;;12.70;;
59659;SDS011;45534;52.690;6.268;2023-11-21T07:28:52;29.17;;;13.57;;
59659;SDS011;45534;52.690;6.268;2023-11-21T07:31:18;25.77;;;14.00;;
59659;SDS011;45534;52.690;6.268;2023-11-21T07:33:44;14.15;;;8.02;;
59659;SDS011;45534;52.690;6.268;2023-11-21T07:36:12;24.05;;;12.73;;
59659;SDS011;45534;52.690;6.268;2023-11-21T07:38:38;23.52;;;11.25;;
59659;SDS011;45534;52.690;6.268;2023-11-21T07:41:05;20.27;;;12.35;;
59659;SDS011;45534;52.690;6.268;2023-11-21T07:43:33;10.35;;;5.65;;
59659;SDS011;45534;52.690;6.268;2023-11-21T07:46:02;24.10;;;14.80;;
59659;SDS011;45534;52.690;6.268;2023-11-21T07:48:31;18.85;;;8.93;;
59659;SDS011;45534;52.690;6.268;2023-11-21T07:50:58;15.27;;;10.98;;
59659;SDS011;45534;52.690;6.268;2023-11-21T07:53:24;19.88;;;11.80;;
59659;SDS011;45534;52.690;6.268;2023-11-21T07:55:56;15.50;;;11.68;;
59659;SDS011;45534;52.690;6.268;2023-11-21T07:58:23;10.10;;;9.10;;
59659;SDS011;45534;52.690;6.268;2023-11-21T08:00:49;18.15;;;10.75;;
59659;SDS011;45534;52.690;6.268;2023-11-21T08:03:15;16.23;;;9.50;;
59659;SDS011;45534;52.690;6.268;2023-11-21T08:05:41;14.85;;;6.68;;
59659;SDS011;45534;52.690;6.268;2023-11-21T08:08:08;13.93;;;8.85;;
59659;SDS011;45534;52.690;6.268;2023-11-21T08:10:34;16.35;;;7.20;;
59659;SDS011;45534;52.690;6.268;2023-11-21T08:13:01;15.90;;;10.85;;
59659;SDS011;45534;52.690;6.268;2023-11-21T08:15:27;18.17;;;11.98;;
59659;SDS011;45534;52.690;6.268;2023-11-21T08:17:53;11.30;;;7.00;;
59659;SDS011;45534;52.690;6.268;2023-11-21T08:20:18;11.85;;;7.07;;
59659;SDS011;45534;52.690;6.268;2023-11-21T08:22:44;10.75;;;7.25;;
59659;SDS011;45534;52.690;6.268;2023-11-21T08:25:10;8.18;;;5.38;;
59659;SDS011;45534;52.690;6.268;2023-11-21T08:27:36;10.38;;;8.27;;
59659;SDS011;45534;52.690;6.268;2023-11-21T08:30:02;16.33;;;11.23;;
59659;SDS011;45534;52.690;6.268;2023-11-21T08:32:29;8.23;;;5.90;;
59659;SDS011;45534;52.690;6.268;2023-11-21T08:35:01;14.40;;;7.95;;
59659;SDS011;45534;52.690;6.268;2023-11-21T08:37:26;13.05;;;5.72;;
59659;SDS011;45534;52.690;6.268;2023-11-21T08:39:54;17.30;;;8.63;;
59659;SDS011;45534;52.690;6.268;2023-11-21T08:42:19;9.35;;;4.93;;
59659;SDS011;45534;52.690;6.268;2023-11-21T08:44:45;11.50;;;6.30;;
59659;SDS011;45534;52.690;6.268;2023-11-21T08:47:11;12.25;;;8.02;;
59659;SDS011;45534;52.690;6.268;2023-11-21T08:49:37;13.40;;;6.35;;
59659;SDS011;45534;52.690;6.268;2023-11-21T08:52:03;17.55;;;9.23;;
59659;SDS011;45534;52.690;6.268;2023-11-21T08:54:30;11.50;;;8.88;;
59659;SDS011;45534;52.690;6.268;2023-11-21T08:56:56;7.45;;;6.43;;
59659;SDS011;45534;52.690;6.268;2023-11-21T08:59:23;13.52;;;8.00;;
59659;SDS011;45534;52.690;6.268;2023-11-21T09:01:50;17.63;;;11.48;;
59659;SDS011;45534;52.690;6.268;2023-11-21T09:04:16;13.65;;;7.85;;
59659;SDS011;45534;52.690;6.268;2023-11-21T09:06:41;12.82;;;8.68;;
59659;SDS011;45534;52.690;6.268;2023-11-21T09:09:07;16.15;;;8.77;;
59659;SDS011;45534;52.690;6.268;2023-11-21T09:11:35;16.40;;;9.55;;
59659;SDS011;45534;52.690;6.268;2023-11-21T09:14:01;14.35;;;9.60;;
59659;SDS011;45534;52.690;6.268;2023-11-21T09:16:28;20.33;;;11.32;;
59659;SDS011;45534;52.690;6.268;2023-11-21T09:18:54;14.20;;;8.90;;
59659;SDS011;45534;52.690;6.268;2023-11-21T09:21:20;11.73;;;6.68;;
59659;SDS011;45534;52.690;6.268;2023-11-21T09:23:45;17.30;;;7.45;;
59659;SDS011;45534;52.690;6.268;2023-11-21T09:26:11;14.25;;;8.90;;
59659;SDS011;45534;52.690;6.268;2023-11-21T09:28:37;14.98;;;6.22;;
59659;SDS011;45534;52.690;6.268;2023-11-21T09:31:04;12.00;;;5.47;;
59659;SDS011;45534;52.690;6.268;2023-11-21T09:33:30;13.30;;;6.68;;
59659;SDS011;45534;52.690;6.268;2023-11-21T09:35:56;10.13;;;6.47;;
59659;SDS011;45534;52.690;6.268;2023-11-21T09:38:22;12.75;;;6.70;;
59659;SDS011;45534;52.690;6.268;2023-11-21T09:40:48;11.63;;;6.43;;
59659;SDS011;45534;52.690;6.268;2023-11-21T09:43:18;18.52;;;8.80;;
59659;SDS011;45534;52.690;6.268;2023-11-21T09:45:45;16.13;;;7.38;;
59659;SDS011;45534;52.690;6.268;2023-11-21T09:48:13;20.13;;;10.43;;
59659;SDS011;45534;52.690;6.268;2023-11-21T09:50:42;22.40;;;9.85;;
59659;SDS011;45534;52.690;6.268;2023-11-21T09:55:44;9.20;;;6.55;;
59659;SDS011;45534;52.690;6.268;2023-11-21T09:58:11;19.63;;;7.72;;
59659;SDS011;45534;52.690;6.268;2023-11-21T10:00:41;10.95;;;5.78;;
59659;SDS011;45534;52.690;6.268;2023-11-21T10:03:09;12.57;;;7.93;;
59659;SDS011;45534;52.690;6.268;2023-11-21T10:05:35;13.43;;;8.18;;
59659;SDS011;45534;52.690;6.268;2023-11-21T10:08:03;17.67;;;9.52;;
59659;SDS011;45534;52.690;6.268;2023-11-21T10:10:32;15.80;;;10.13;;
59659;SDS011;45534;52.690;6.268;2023-11-21T10:13:00;20.20;;;12.60;;
59659;SDS011;45534;52.690;6.268;2023-11-21T10:15:28;19.98;;;9.32;;
59659;SDS011;45534;52.690;6.268;2023-11-21T10:17:56;21.23;;;9.48;;
59659;SDS011;45534;52.690;6.268;2023-11-21T10:20:24;29.52;;;12.52;;
59659;SDS011;45534;52.690;6.268;2023-11-21T10:22:51;17.25;;;9.68;;
59659;SDS011;45534;52.690;6.268;2023-11-21T10:25:17;20.98;;;9.15;;
59659;SDS011;45534;52.690;6.268;2023-11-21T10:27:46;16.08;;;8.45;;
59659;SDS011;45534;52.690;6.268;2023-11-21T10:30:15;20.15;;;11.77;;
59659;SDS011;45534;52.690;6.268;2023-11-21T10:32:41;18.00;;;11.15;;
59659;SDS011;45534;52.690;6.268;2023-11-21T10:35:08;22.73;;;10.93;;
59659;SDS011;45534;52.690;6.268;2023-11-21T10:37:36;25.75;;;16.25;;
59659;SDS011;45534;52.690;6.268;2023-11-21T10:40:08;14.52;;;9.18;;
59659;SDS011;45534;52.690;6.268;2023-11-21T10:42:40;16.92;;;11.05;;
59659;SDS011;45534;52.690;6.268;2023-11-21T10:45:07;16.88;;;11.23;;
59659;SDS011;45534;52.690;6.268;2023-11-21T10:47:43;22.67;;;12.55;;
59659;SDS011;45534;52.690;6.268;2023-11-21T10:50:09;15.35;;;10.10;;
59659;SDS011;45534;52.690;6.268;2023-11-21T10:52:37;17.30;;;11.93;;
59659;SDS011;45534;52.690;6.268;2023-11-21T10:55:15;12.35;;;11.00;;
59659;SDS011;45534;52.690;6.268;2023-11-21T10:57:43;37.47;;;15.82;;
59659;SDS011;45534;52.690;6.268;2023-11-21T11:00:13;18.10;;;11.93;;
59659;SDS011;45534;52.690;6.268;2023-11-21T11:02:41;20.17;;;14.13;;
59659;SDS011;45534;52.690;6.268;2023-11-21T11:05:07;25.73;;;17.48;;
59659;SDS011;45534;52.690;6.268;2023-11-21T11:07:36;22.83;;;14.80;;
59659;SDS011;45534;52.690;6.268;2023-11-21T11:10:05;11.45;;;8.40;;
59659;SDS011;45534;52.690;6.268;2023-11-21T11:12:33;29.15;;;15.73;;
59659;SDS011;45534;52.690;6.268;2023-11-21T11:15:01;21.00;;;12.75;;
59659;SDS011;45534;52.690;6.268;2023-11-21T11:17:28;29.98;;;16.35;;
59659;SDS011;45534;52.690;6.268;2023-11-21T11:19:54;24.67;;;17.33;;
59659;SDS011;45534;52.690;6.268;2023-11-21T11:27:56;20.98;;;14.05;;
59659;SDS011;45534;52.690;6.268;2023-11-21T11:38:50;20.98;;;13.57;;
59659;SDS011;45534;52.690;6.268;2023-11-21T11:41:24;20.85;;;15.80;;
59659;SDS011;45534;52.690;6.268;2023-11-21T11:43:52;29.15;;;19.83;;
59659;SDS011;45534;52.690;6.268;2023-11-21T11:46:18;18.27;;;12.40;;
59659;SDS011;45534;52.690;6.268;2023-11-21T11:48:47;16.08;;;13.05;;
59659;SDS011;45534;52.690;6.268;2023-11-21T11:51:21;23.98;;;14.35;;
59659;SDS011;45534;52.690;6.268;2023-11-21T11:53:47;10.40;;;9.32;;
59659;SDS011;45534;52.690;6.268;2023-11-21T11:56:29;16.65;;;11.98;;
59659;SDS011;45534;52.690;6.268;2023-11-21T11:58:59;23.25;;;11.02;;
59659;SDS011;45534;52.690;6.268;2023-11-21T12:01:34;18.42;;;13.23;;
59659;SDS011;45534;52.690;6.268;2023-11-21T12:06:51;19.70;;;13.32;;
59659;SDS011;45534;52.690;6.268;2023-11-21T12:09:21;17.98;;;11.07;;
59659;SDS011;45534;52.690;6.268;2023-11-21T12:11:49;14.95;;;12.07;;
59659;SDS011;45534;52.690;6.268;2023-11-21T12:14:15;23.83;;;19.85;;
59659;SDS011;45534;52.690;6.268;2023-11-21T12:16:41;17.13;;;13.73;;
59659;SDS011;45534;52.690;6.268;2023-11-21T12:19:08;21.08;;;13.82;;
59659;SDS011;45534;52.690;6.268;2023-11-21T12:21:36;15.63;;;9.73;;
59659;SDS011;45534;52.690;6.268;2023-11-21T12:24:02;15.75;;;9.15;;
59659;SDS011;45534;52.690;6.268;2023-11-21T12:26:29;15.82;;;12.07;;
59659;SDS011;45534;52.690;6.268;2023-11-21T12:28:54;7.82;;;4.88;;
59659;SDS011;45534;52.690;6.268;2023-11-21T12:31:21;16.00;;;10.65;;
59659;SDS011;45534;52.690;6.268;2023-11-21T12:33:47;9.50;;;6.10;;
59659;SDS011;45534;52.690;6.268;2023-11-21T12:36:13;20.33;;;8.18;;
59659;SDS011;45534;52.690;6.268;2023-11-21T12:38:39;12.88;;;8.25;;
59659;SDS011;45534;52.690;6.268;2023-11-21T12:41:05;10.13;;;6.80;;
59659;SDS011;45534;52.690;6.268;2023-11-21T12:43:31;18.83;;;9.60;;
59659;SDS011;45534;52.690;6.268;2023-11-21T12:46:07;14.82;;;8.80;;
59659;SDS011;45534;52.690;6.268;2023-11-21T12:48:38;13.38;;;7.85;;
59659;SDS011;45534;52.690;6.268;2023-11-21T12:51:05;10.32;;;6.50;;
59659;SDS011;45534;52.690;6.268;2023-11-21T12:53:31;9.38;;;7.38;;
59659;SDS011;45534;52.690;6.268;2023-11-21T12:56:02;14.23;;;8.18;;
59659;SDS011;45534;52.690;6.268;2023-11-21T12:58:31;9.52;;;8.40;;
59659;SDS011;45534;52.690;6.268;2023-11-21T13:00:58;9.98;;;6.57;;
59659;SDS011;45534;52.690;6.268;2023-11-21T13:03:24;20.55;;;6.43;;
59659;SDS011;45534;52.690;6.268;2023-11-21T13:05:51;10.02;;;6.03;;
59659;SDS011;45534;52.690;6.268;2023-11-21T13:08:20;9.70;;;5.95;;
59659;SDS011;45534;52.690;6.268;2023-11-21T13:10:51;7.10;;;5.70;;
59659;SDS011;45534;52.690;6.268;2023-11-21T13:13:21;6.80;;;4.88;;
59659;SDS011;45534;52.690;6.268;2023-11-21T13:15:53;10.95;;;6.65;;
59659;SDS011;45534;52.690;6.268;2023-11-21T13:18:23;13.88;;;8.88;;
59659;SDS011;45534;52.690;6.268;2023-11-21T13:20:49;16.23;;;12.65;;
59659;SDS011;45534;52.690;6.268;2023-11-21T13:23:15;11.38;;;7.80;;
59659;SDS011;45534;52.690;6.268;2023-11-21T13:25:44;8.90;;;5.45;;
59659;SDS011;45534;52.690;6.268;2023-11-21T13:28:11;15.15;;;10.52;;
59659;SDS011;45534;52.690;6.268;2023-11-21T13:30:37;11.75;;;9.43;;
59659;SDS011;45534;52.690;6.268;2023-11-21T13:33:05;9.07;;;5.97;;
59659;SDS011;45534;52.690;6.268;2023-11-21T13:35:33;8.07;;;5.20;;
59659;SDS011;45534;52.690;6.268;2023-11-21T13:38:05;12.30;;;7.22;;
59659;SDS011;45534;52.690;6.268;2023-11-21T13:40:32;8.45;;;6.68;;
59659;SDS011;45534;52.690;6.268;2023-11-21T13:43:05;8.52;;;6.00;;
59659;SDS011;45534;52.690;6.268;2023-11-21T13:45:35;7.97;;;5.95;;
59659;SDS011;45534;52.690;6.268;2023-11-21T13:48:05;8.52;;;6.63;;
59659;SDS011;45534;52.690;6.268;2023-11-21T13:50:35;10.80;;;6.47;;
59659;SDS011;45534;52.690;6.268;2023-11-21T13:53:13;9.18;;;7.00;;
59659;SDS011;45534;52.690;6.268;2023-11-21T13:55:49;7.70;;;5.65;;
59659;SDS011;45534;52.690;6.268;2023-11-21T13:58:16;9.38;;;7.88;;
59659;SDS011;45534;52.690;6.268;2023-11-21T14:00:48;11.27;;;10.10;;
59659;SDS011;45534;52.690;6.268;2023-11-21T14:03:22;10.25;;;5.45;;
59659;SDS011;45534;52.690;6.268;2023-11-21T14:05:57;8.20;;;5.15;;
59659;SDS011;45534;52.690;6.268;2023-11-21T14:08:25;9.93;;;6.65;;
59659;SDS011;45534;52.690;6.268;2023-11-21T14:10:54;9.85;;;5.35;;
59659;SDS011;45534;52.690;6.268;2023-11-21T14:13:24;5.55;;;4.13;;
59659;SDS011;45534;52.690;6.268;2023-11-21T14:15:51;9.52;;;5.55;;
59659;SDS011;45534;52.690;6.268;2023-11-21T14:20:55;9.20;;;5.47;;
59659;SDS011;45534;52.690;6.268;2023-11-21T14:23:21;15.57;;;5.15;;
59659;SDS011;45534;52.690;6.268;2023-11-21T14:25:48;7.93;;;5.60;;
59659;SDS011;45534;52.690;6.268;2023-11-21T14:28:17;10.30;;;5.55;;
59659;SDS011;45534;52.690;6.268;2023-11-21T14:30:44;7.40;;;6.03;;
59659;SDS011;45534;52.690;6.268;2023-11-21T14:33:11;5.10;;;4.07;;
59659;SDS011;45534;52.690;6.268;2023-11-21T14:35:37;18.30;;;5.47;;
59659;SDS011;45534;52.690;6.268;2023-11-21T14:38:03;6.10;;;4.30;;
59659;SDS011;45534;52.690;6.268;2023-11-21T14:40:33;8.40;;;5.18;;
59659;SDS011;45534;52.690;6.268;2023-11-21T14:43:01;7.20;;;4.73;;
59659;SDS011;45534;52.690;6.268;2023-11-21T14:45:27;7.43;;;6.18;;
59659;SDS011;45534;52.690;6.268;2023-11-21T14:47:54;11.90;;;8.68;;